sensor_id;sensor_type;location;lat;lon;timestamp;P1;durP1;ratioP1;P2;durP2;ratioP2
78985;SDS011;68384;55.750;48.746;2023-09-19T00:00:35;6.00;;;2.90;;
78985;SDS011;68384;55.750;48.746;2023-09-19T00:03:03;4.68;;;3.03;;
78985;SDS011;68384;55.750;48.746;2023-09-19T00:05:35;5.13;;;3.35;;
78985;SDS011;68384;55.750;48.746;2023-09-19T00:08:03;4.97;;;3.08;;
78985;SDS011;68384;55.750;48.746;2023-09-19T00:10:32;5.90;;;3.38;;
78985;SDS011;68384;55.750;48.746;2023-09-19T00:13:02;6.72;;;2.92;;
78985;SDS011;68384;55.750;48.746;2023-09-19T00:15:41;8.02;;;4.10;;
78985;SDS011;68384;55.750;48.746;2023-09-19T00:18:17;5.43;;;3.33;;
78985;SDS011;68384;55.750;48.746;2023-09-19T00:20:48;5.18;;;3.40;;
78985;SDS011;68384;55.750;48.746;2023-09-19T00:23:16;5.40;;;2.83;;
78985;SDS011;68384;55.750;48.746;2023-09-19T00:25:47;5.60;;;3.95;;
78985;SDS011;68384;55.750;48.746;2023-09-19T00:28:15;5.18;;;3.63;;
78985;SDS011;68384;55.750;48.746;2023-09-19T00:30:44;4.25;;;3.17;;
78985;SDS011;68384;55.750;48.746;2023-09-19T00:33:18;7.90;;;3.85;;
78985;SDS011;68384;55.750;48.746;2023-09-19T00:35:50;5.68;;;3.88;;
78985;SDS011;68384;55.750;48.746;2023-09-19T00:38:19;5.38;;;3.58;;
78985;SDS011;68384;55.750;48.746;2023-09-19T00:40:50;6.78;;;3.90;;
78985;SDS011;68384;55.750;48.746;2023-09-19T00:43:23;5.55;;;3.25;;
78985;SDS011;68384;55.750;48.746;2023-09-19T00:45:54;8.77;;;3.85;;
78985;SDS011;68384;55.750;48.746;2023-09-19T00:48:22;5.00;;;3.38;;
78985;SDS011;68384;55.750;48.746;2023-09-19T00:50:57;6.85;;;3.55;;
78985;SDS011;68384;55.750;48.746;2023-09-19T00:53:29;5.45;;;3.55;;
78985;SDS011;68384;55.750;48.746;2023-09-19T00:55:57;5.72;;;4.22;;
78985;SDS011;68384;55.750;48.746;2023-09-19T00:58:26;5.78;;;3.20;;
78985;SDS011;68384;55.750;48.746;2023-09-19T01:01:01;6.05;;;3.30;;
78985;SDS011;68384;55.750;48.746;2023-09-19T01:03:30;6.65;;;2.92;;
78985;SDS011;68384;55.750;48.746;2023-09-19T01:05:59;4.88;;;2.97;;
78985;SDS011;68384;55.750;48.746;2023-09-19T01:08:27;4.05;;;3.00;;
78985;SDS011;68384;55.750;48.746;2023-09-19T01:10:59;7.47;;;3.20;;
78985;SDS011;68384;55.750;48.746;2023-09-19T01:13:35;5.10;;;2.72;;
78985;SDS011;68384;55.750;48.746;2023-09-19T01:16:14;5.25;;;2.92;;
78985;SDS011;68384;55.750;48.746;2023-09-19T01:22:25;5.03;;;3.05;;
78985;SDS011;68384;55.750;48.746;2023-09-19T01:30:57;5.13;;;3.13;;
78985;SDS011;68384;55.750;48.746;2023-09-19T01:33:27;5.43;;;3.08;;
78985;SDS011;68384;55.750;48.746;2023-09-19T01:35:54;5.18;;;3.38;;
78985;SDS011;68384;55.750;48.746;2023-09-19T01:38:26;4.88;;;3.00;;
78985;SDS011;68384;55.750;48.746;2023-09-19T01:41:00;4.97;;;3.22;;
78985;SDS011;68384;55.750;48.746;2023-09-19T01:43:37;5.65;;;3.28;;
78985;SDS011;68384;55.750;48.746;2023-09-19T01:46:14;6.00;;;3.58;;
78985;SDS011;68384;55.750;48.746;2023-09-19T01:48:49;5.40;;;3.15;;
78985;SDS011;68384;55.750;48.746;2023-09-19T01:51:42;6.38;;;3.28;;
78985;SDS011;68384;55.750;48.746;2023-09-19T01:54:16;6.63;;;3.33;;
78985;SDS011;68384;55.750;48.746;2023-09-19T01:56:57;5.07;;;3.00;;
78985;SDS011;68384;55.750;48.746;2023-09-19T02:02:40;3.65;;;2.55;;
78985;SDS011;68384;55.750;48.746;2023-09-19T02:05:11;4.28;;;2.80;;
78985;SDS011;68384;55.750;48.746;2023-09-19T02:07:39;5.22;;;2.88;;
78985;SDS011;68384;55.750;48.746;2023-09-19T02:10:07;4.47;;;3.05;;
78985;SDS011;68384;55.750;48.746;2023-09-19T02:12:37;4.82;;;2.90;;
78985;SDS011;68384;55.750;48.746;2023-09-19T02:15:05;4.43;;;2.97;;
78985;SDS011;68384;55.750;48.746;2023-09-19T02:17:34;5.80;;;3.00;;
78985;SDS011;68384;55.750;48.746;2023-09-19T02:23:13;4.15;;;3.05;;
78985;SDS011;68384;55.750;48.746;2023-09-19T02:36:19;4.60;;;2.92;;
78985;SDS011;68384;55.750;48.746;2023-09-19T02:38:47;3.72;;;2.70;;
78985;SDS011;68384;55.750;48.746;2023-09-19T02:41:14;5.20;;;2.92;;
78985;SDS011;68384;55.750;48.746;2023-09-19T02:43:42;4.07;;;3.05;;
78985;SDS011;68384;55.750;48.746;2023-09-19T02:48:46;6.22;;;2.65;;
78985;SDS011;68384;55.750;48.746;2023-09-19T02:56:29;5.07;;;2.95;;
78985;SDS011;68384;55.750;48.746;2023-09-19T02:59:00;4.72;;;2.80;;
78985;SDS011;68384;55.750;48.746;2023-09-19T03:01:27;3.90;;;2.83;;
78985;SDS011;68384;55.750;48.746;2023-09-19T03:06:48;5.43;;;3.38;;
78985;SDS011;68384;55.750;48.746;2023-09-19T03:09:18;3.97;;;3.13;;
78985;SDS011;68384;55.750;48.746;2023-09-19T03:11:46;5.85;;;3.08;;
78985;SDS011;68384;55.750;48.746;2023-09-19T03:14:14;3.55;;;2.40;;
78985;SDS011;68384;55.750;48.746;2023-09-19T03:19:23;4.28;;;2.60;;
78985;SDS011;68384;55.750;48.746;2023-09-19T03:22:09;4.40;;;2.90;;
78985;SDS011;68384;55.750;48.746;2023-09-19T03:27:48;4.25;;;2.67;;
78985;SDS011;68384;55.750;48.746;2023-09-19T03:30:16;3.97;;;2.67;;
78985;SDS011;68384;55.750;48.746;2023-09-19T03:35:52;3.50;;;2.38;;
78985;SDS011;68384;55.750;48.746;2023-09-19T03:38:21;5.90;;;3.03;;
78985;SDS011;68384;55.750;48.746;2023-09-19T03:40:49;5.63;;;2.70;;
78985;SDS011;68384;55.750;48.746;2023-09-19T03:43:16;3.90;;;2.40;;
78985;SDS011;68384;55.750;48.746;2023-09-19T03:45:44;4.35;;;2.42;;
78985;SDS011;68384;55.750;48.746;2023-09-19T03:48:13;8.50;;;2.65;;
78985;SDS011;68384;55.750;48.746;2023-09-19T03:50:41;4.35;;;2.53;;
78985;SDS011;68384;55.750;48.746;2023-09-19T03:53:10;3.95;;;2.13;;
78985;SDS011;68384;55.750;48.746;2023-09-19T03:55:38;3.65;;;2.20;;
78985;SDS011;68384;55.750;48.746;2023-09-19T03:58:06;4.80;;;2.17;;
78985;SDS011;68384;55.750;48.746;2023-09-19T04:03:27;2.50;;;1.75;;
78985;SDS011;68384;55.750;48.746;2023-09-19T04:08:56;5.55;;;2.10;;
78985;SDS011;68384;55.750;48.746;2023-09-19T04:14:23;2.80;;;1.83;;
78985;SDS011;68384;55.750;48.746;2023-09-19T04:19:57;5.03;;;2.03;;
78985;SDS011;68384;55.750;48.746;2023-09-19T04:22:28;3.65;;;2.30;;
78985;SDS011;68384;55.750;48.746;2023-09-19T04:27:33;5.72;;;2.47;;
78985;SDS011;68384;55.750;48.746;2023-09-19T04:30:01;5.20;;;2.40;;
78985;SDS011;68384;55.750;48.746;2023-09-19T04:32:31;3.50;;;2.20;;
78985;SDS011;68384;55.750;48.746;2023-09-19T04:35:03;3.88;;;2.40;;
78985;SDS011;68384;55.750;48.746;2023-09-19T04:40:18;2.70;;;1.92;;
78985;SDS011;68384;55.750;48.746;2023-09-19T04:42:52;3.58;;;2.28;;
78985;SDS011;68384;55.750;48.746;2023-09-19T04:45:24;4.20;;;2.20;;
78985;SDS011;68384;55.750;48.746;2023-09-19T04:47:52;4.03;;;2.08;;
78985;SDS011;68384;55.750;48.746;2023-09-19T04:50:20;4.40;;;1.92;;
78985;SDS011;68384;55.750;48.746;2023-09-19T04:52:52;3.17;;;1.90;;
78985;SDS011;68384;55.750;48.746;2023-09-19T04:55:20;3.50;;;1.98;;
78985;SDS011;68384;55.750;48.746;2023-09-19T04:57:48;3.08;;;2.00;;
78985;SDS011;68384;55.750;48.746;2023-09-19T05:00:18;2.53;;;1.60;;
78985;SDS011;68384;55.750;48.746;2023-09-19T05:02:50;2.88;;;1.85;;
78985;SDS011;68384;55.750;48.746;2023-09-19T05:05:19;2.20;;;1.70;;
78985;SDS011;68384;55.750;48.746;2023-09-19T05:07:46;2.55;;;1.88;;
78985;SDS011;68384;55.750;48.746;2023-09-19T05:10:14;3.08;;;1.70;;
78985;SDS011;68384;55.750;48.746;2023-09-19T05:12:46;2.53;;;1.67;;
78985;SDS011;68384;55.750;48.746;2023-09-19T05:15:14;4.70;;;1.80;;
78985;SDS011;68384;55.750;48.746;2023-09-19T05:17:42;8.95;;;3.72;;
78985;SDS011;68384;55.750;48.746;2023-09-19T05:20:14;3.03;;;1.58;;
78985;SDS011;68384;55.750;48.746;2023-09-19T05:23:00;4.00;;;1.65;;
78985;SDS011;68384;55.750;48.746;2023-09-19T05:25:31;2.75;;;1.60;;
78985;SDS011;68384;55.750;48.746;2023-09-19T05:27:59;2.88;;;1.50;;
78985;SDS011;68384;55.750;48.746;2023-09-19T05:30:34;2.75;;;1.60;;
78985;SDS011;68384;55.750;48.746;2023-09-19T05:33:14;5.22;;;1.45;;
78985;SDS011;68384;55.750;48.746;2023-09-19T05:35:41;2.25;;;1.42;;
78985;SDS011;68384;55.750;48.746;2023-09-19T05:38:09;2.92;;;1.50;;
78985;SDS011;68384;55.750;48.746;2023-09-19T05:40:37;2.78;;;1.75;;
78985;SDS011;68384;55.750;48.746;2023-09-19T05:43:06;2.63;;;1.60;;
78985;SDS011;68384;55.750;48.746;2023-09-19T05:45:33;2.42;;;1.60;;
78985;SDS011;68384;55.750;48.746;2023-09-19T05:48:11;3.10;;;1.40;;
78985;SDS011;68384;55.750;48.746;2023-09-19T05:50:42;2.28;;;1.35;;
78985;SDS011;68384;55.750;48.746;2023-09-19T05:53:12;3.63;;;1.55;;
78985;SDS011;68384;55.750;48.746;2023-09-19T05:55:45;3.08;;;1.33;;
78985;SDS011;68384;55.750;48.746;2023-09-19T05:58:13;2.88;;;1.15;;
78985;SDS011;68384;55.750;48.746;2023-09-19T06:00:45;4.75;;;2.15;;
78985;SDS011;68384;55.750;48.746;2023-09-19T06:03:29;1.80;;;1.30;;
78985;SDS011;68384;55.750;48.746;2023-09-19T06:06:02;2.50;;;1.30;;
78985;SDS011;68384;55.750;48.746;2023-09-19T06:08:30;2.28;;;1.30;;
78985;SDS011;68384;55.750;48.746;2023-09-19T06:10:58;2.20;;;1.30;;
78985;SDS011;68384;55.750;48.746;2023-09-19T06:13:29;2.30;;;1.30;;
78985;SDS011;68384;55.750;48.746;2023-09-19T06:15:56;2.83;;;1.40;;
78985;SDS011;68384;55.750;48.746;2023-09-19T06:18:25;2.25;;;1.02;;
78985;SDS011;68384;55.750;48.746;2023-09-19T06:20:53;2.50;;;1.10;;
78985;SDS011;68384;55.750;48.746;2023-09-19T06:23:20;2.10;;;1.30;;
78985;SDS011;68384;55.750;48.746;2023-09-19T06:25:48;3.15;;;1.40;;
78985;SDS011;68384;55.750;48.746;2023-09-19T06:28:15;3.25;;;1.30;;
78985;SDS011;68384;55.750;48.746;2023-09-19T06:30:45;2.25;;;1.23;;
78985;SDS011;68384;55.750;48.746;2023-09-19T06:33:12;2.88;;;1.40;;
78985;SDS011;68384;55.750;48.746;2023-09-19T06:35:44;2.00;;;1.15;;
78985;SDS011;68384;55.750;48.746;2023-09-19T06:38:13;2.67;;;1.23;;
78985;SDS011;68384;55.750;48.746;2023-09-19T06:40:42;2.80;;;1.20;;
78985;SDS011;68384;55.750;48.746;2023-09-19T06:43:10;1.90;;;1.30;;
78985;SDS011;68384;55.750;48.746;2023-09-19T06:45:38;2.25;;;1.02;;
78985;SDS011;68384;55.750;48.746;2023-09-19T06:48:05;3.78;;;1.20;;
78985;SDS011;68384;55.750;48.746;2023-09-19T06:50:33;2.00;;;0.95;;
78985;SDS011;68384;55.750;48.746;2023-09-19T06:53:02;2.45;;;0.93;;
78985;SDS011;68384;55.750;48.746;2023-09-19T06:55:30;2.08;;;1.10;;
78985;SDS011;68384;55.750;48.746;2023-09-19T06:57:59;3.95;;;1.05;;
78985;SDS011;68384;55.750;48.746;2023-09-19T07:00:27;1.73;;;1.00;;
78985;SDS011;68384;55.750;48.746;2023-09-19T07:03:02;3.10;;;0.93;;
78985;SDS011;68384;55.750;48.746;2023-09-19T07:05:31;2.88;;;1.35;;
78985;SDS011;68384;55.750;48.746;2023-09-19T07:07:59;2.53;;;0.90;;
78985;SDS011;68384;55.750;48.746;2023-09-19T07:10:30;2.08;;;1.20;;
78985;SDS011;68384;55.750;48.746;2023-09-19T07:12:58;2.55;;;1.45;;
78985;SDS011;68384;55.750;48.746;2023-09-19T07:15:32;1.80;;;1.10;;
78985;SDS011;68384;55.750;48.746;2023-09-19T07:18:06;2.50;;;0.90;;
78985;SDS011;68384;55.750;48.746;2023-09-19T07:20:36;2.83;;;0.90;;
78985;SDS011;68384;55.750;48.746;2023-09-19T07:23:04;2.00;;;1.20;;
78985;SDS011;68384;55.750;48.746;2023-09-19T07:25:31;3.13;;;1.20;;
78985;SDS011;68384;55.750;48.746;2023-09-19T07:27:58;2.40;;;1.15;;
78985;SDS011;68384;55.750;48.746;2023-09-19T07:30:29;1.95;;;1.00;;
78985;SDS011;68384;55.750;48.746;2023-09-19T07:32:57;2.42;;;1.02;;
78985;SDS011;68384;55.750;48.746;2023-09-19T07:35:25;2.47;;;1.10;;
78985;SDS011;68384;55.750;48.746;2023-09-19T07:37:52;1.80;;;0.90;;
78985;SDS011;68384;55.750;48.746;2023-09-19T07:40:20;2.83;;;0.90;;
78985;SDS011;68384;55.750;48.746;2023-09-19T07:42:48;1.90;;;1.00;;
78985;SDS011;68384;55.750;48.746;2023-09-19T07:45:16;2.40;;;1.00;;
78985;SDS011;68384;55.750;48.746;2023-09-19T07:47:44;3.00;;;0.73;;
78985;SDS011;68384;55.750;48.746;2023-09-19T07:54:22;1.80;;;0.90;;
78985;SDS011;68384;55.750;48.746;2023-09-19T07:56:49;2.35;;;1.08;;
78985;SDS011;68384;55.750;48.746;2023-09-19T07:59:16;1.90;;;0.95;;
78985;SDS011;68384;55.750;48.746;2023-09-19T08:01:44;3.20;;;1.00;;
78985;SDS011;68384;55.750;48.746;2023-09-19T08:04:11;1.98;;;0.95;;
78985;SDS011;68384;55.750;48.746;2023-09-19T08:06:39;1.83;;;1.00;;
78985;SDS011;68384;55.750;48.746;2023-09-19T08:09:06;3.08;;;1.08;;
78985;SDS011;68384;55.750;48.746;2023-09-19T08:11:36;2.30;;;1.20;;
78985;SDS011;68384;55.750;48.746;2023-09-19T08:14:03;2.70;;;1.20;;
78985;SDS011;68384;55.750;48.746;2023-09-19T08:16:32;2.78;;;1.35;;
78985;SDS011;68384;55.750;48.746;2023-09-19T08:19:00;1.80;;;1.00;;
78985;SDS011;68384;55.750;48.746;2023-09-19T08:21:27;1.83;;;1.00;;
78985;SDS011;68384;55.750;48.746;2023-09-19T08:23:56;3.50;;;1.27;;
78985;SDS011;68384;55.750;48.746;2023-09-19T08:26:24;2.42;;;1.10;;
78985;SDS011;68384;55.750;48.746;2023-09-19T08:28:51;2.30;;;1.13;;
78985;SDS011;68384;55.750;48.746;2023-09-19T08:31:20;2.17;;;1.10;;
78985;SDS011;68384;55.750;48.746;2023-09-19T08:33:47;2.45;;;0.90;;
78985;SDS011;68384;55.750;48.746;2023-09-19T08:36:16;2.00;;;0.85;;
78985;SDS011;68384;55.750;48.746;2023-09-19T08:38:44;2.30;;;1.25;;
78985;SDS011;68384;55.750;48.746;2023-09-19T08:41:11;2.33;;;1.05;;
78985;SDS011;68384;55.750;48.746;2023-09-19T08:43:39;2.55;;;1.05;;
78985;SDS011;68384;55.750;48.746;2023-09-19T08:48:35;2.25;;;1.15;;
78985;SDS011;68384;55.750;48.746;2023-09-19T08:51:06;2.15;;;1.33;;
78985;SDS011;68384;55.750;48.746;2023-09-19T08:56:10;2.35;;;1.05;;
78985;SDS011;68384;55.750;48.746;2023-09-19T08:58:39;2.30;;;1.25;;
78985;SDS011;68384;55.750;48.746;2023-09-19T09:01:16;2.50;;;1.23;;
78985;SDS011;68384;55.750;48.746;2023-09-19T09:03:52;1.90;;;1.10;;
78985;SDS011;68384;55.750;48.746;2023-09-19T09:06:20;2.25;;;1.20;;
78985;SDS011;68384;55.750;48.746;2023-09-19T09:08:52;4.10;;;1.00;;
78985;SDS011;68384;55.750;48.746;2023-09-19T09:11:20;2.35;;;0.88;;
78985;SDS011;68384;55.750;48.746;2023-09-19T09:13:48;5.43;;;1.90;;
78985;SDS011;68384;55.750;48.746;2023-09-19T09:16:16;2.75;;;1.30;;
78985;SDS011;68384;55.750;48.746;2023-09-19T09:18:46;7.03;;;1.35;;
78985;SDS011;68384;55.750;48.746;2023-09-19T09:21:21;2.17;;;1.30;;
78985;SDS011;68384;55.750;48.746;2023-09-19T09:23:49;2.65;;;1.10;;
78985;SDS011;68384;55.750;48.746;2023-09-19T09:26:40;4.20;;;1.10;;
78985;SDS011;68384;55.750;48.746;2023-09-19T09:29:10;1.90;;;1.08;;
78985;SDS011;68384;55.750;48.746;2023-09-19T09:31:37;2.70;;;1.23;;
78985;SDS011;68384;55.750;48.746;2023-09-19T09:34:05;2.17;;;1.02;;
78985;SDS011;68384;55.750;48.746;2023-09-19T09:36:37;1.90;;;1.20;;
78985;SDS011;68384;55.750;48.746;2023-09-19T09:39:06;3.28;;;1.42;;
78985;SDS011;68384;55.750;48.746;2023-09-19T09:41:43;2.03;;;1.00;;
78985;SDS011;68384;55.750;48.746;2023-09-19T09:44:14;3.72;;;1.23;;
78985;SDS011;68384;55.750;48.746;2023-09-19T09:46:43;1.80;;;1.27;;
78985;SDS011;68384;55.750;48.746;2023-09-19T09:49:27;2.53;;;1.17;;
78985;SDS011;68384;55.750;48.746;2023-09-19T09:52:03;1.73;;;0.95;;
78985;SDS011;68384;55.750;48.746;2023-09-19T09:54:59;4.63;;;1.25;;
78985;SDS011;68384;55.750;48.746;2023-09-19T09:57:28;1.90;;;0.95;;
78985;SDS011;68384;55.750;48.746;2023-09-19T09:59:57;2.60;;;1.27;;
78985;SDS011;68384;55.750;48.746;2023-09-19T10:02:38;2.30;;;1.40;;
78985;SDS011;68384;55.750;48.746;2023-09-19T10:05:16;5.00;;;1.08;;
78985;SDS011;68384;55.750;48.746;2023-09-19T10:07:48;2.20;;;1.23;;
78985;SDS011;68384;55.750;48.746;2023-09-19T10:13:14;5.28;;;1.33;;
78985;SDS011;68384;55.750;48.746;2023-09-19T10:15:49;2.10;;;1.17;;
78985;SDS011;68384;55.750;48.746;2023-09-19T10:18:25;1.90;;;1.00;;
78985;SDS011;68384;55.750;48.746;2023-09-19T10:20:56;2.40;;;1.20;;
78985;SDS011;68384;55.750;48.746;2023-09-19T10:23:25;2.17;;;1.13;;
78985;SDS011;68384;55.750;48.746;2023-09-19T10:25:56;1.60;;;0.82;;
78985;SDS011;68384;55.750;48.746;2023-09-19T10:28:26;2.33;;;1.10;;
78985;SDS011;68384;55.750;48.746;2023-09-19T10:30:56;3.13;;;1.30;;
78985;SDS011;68384;55.750;48.746;2023-09-19T10:33:26;2.13;;;1.10;;
78985;SDS011;68384;55.750;48.746;2023-09-19T10:36:02;4.25;;;1.42;;
78985;SDS011;68384;55.750;48.746;2023-09-19T10:38:31;2.30;;;1.45;;
78985;SDS011;68384;55.750;48.746;2023-09-19T10:41:02;5.85;;;1.50;;
78985;SDS011;68384;55.750;48.746;2023-09-19T10:43:32;2.85;;;1.20;;
78985;SDS011;68384;55.750;48.746;2023-09-19T10:46:05;3.53;;;1.38;;
78985;SDS011;68384;55.750;48.746;2023-09-19T10:48:34;2.22;;;1.20;;
78985;SDS011;68384;55.750;48.746;2023-09-19T10:51:06;4.68;;;1.23;;
78985;SDS011;68384;55.750;48.746;2023-09-19T10:53:56;2.33;;;1.10;;
78985;SDS011;68384;55.750;48.746;2023-09-19T10:56:38;3.80;;;1.20;;
78985;SDS011;68384;55.750;48.746;2023-09-19T10:59:14;1.90;;;1.20;;
78985;SDS011;68384;55.750;48.746;2023-09-19T11:01:46;2.03;;;1.08;;
78985;SDS011;68384;55.750;48.746;2023-09-19T11:07:03;2.45;;;1.33;;
78985;SDS011;68384;55.750;48.746;2023-09-19T11:15:03;1.98;;;1.13;;
78985;SDS011;68384;55.750;48.746;2023-09-19T11:17:41;4.00;;;1.52;;
78985;SDS011;68384;55.750;48.746;2023-09-19T11:30:39;2.55;;;1.60;;
78985;SDS011;68384;55.750;48.746;2023-09-19T11:33:22;3.70;;;1.42;;
78985;SDS011;68384;55.750;48.746;2023-09-19T11:36:03;3.75;;;1.30;;
78985;SDS011;68384;55.750;48.746;2023-09-19T11:43:51;2.33;;;1.42;;
78985;SDS011;68384;55.750;48.746;2023-09-19T11:46:30;2.88;;;1.67;;
78985;SDS011;68384;55.750;48.746;2023-09-19T11:49:06;3.60;;;1.30;;
78985;SDS011;68384;55.750;48.746;2023-09-19T11:51:41;2.30;;;1.20;;
78985;SDS011;68384;55.750;48.746;2023-09-19T11:54:11;2.45;;;1.30;;
78985;SDS011;68384;55.750;48.746;2023-09-19T11:56:45;2.38;;;1.10;;
78985;SDS011;68384;55.750;48.746;2023-09-19T11:59:21;1.90;;;1.20;;
78985;SDS011;68384;55.750;48.746;2023-09-19T12:01:50;2.53;;;1.40;;
78985;SDS011;68384;55.750;48.746;2023-09-19T12:04:37;3.08;;;1.15;;
78985;SDS011;68384;55.750;48.746;2023-09-19T12:07:06;3.97;;;1.42;;
78985;SDS011;68384;55.750;48.746;2023-09-19T12:10:03;3.35;;;1.50;;
78985;SDS011;68384;55.750;48.746;2023-09-19T12:12:33;4.28;;;1.40;;
78985;SDS011;68384;55.750;48.746;2023-09-19T12:15:00;2.50;;;1.45;;
78985;SDS011;68384;55.750;48.746;2023-09-19T12:17:36;2.92;;;1.30;;
78985;SDS011;68384;55.750;48.746;2023-09-19T12:20:04;2.00;;;1.30;;
78985;SDS011;68384;55.750;48.746;2023-09-19T12:22:40;4.47;;;1.40;;
78985;SDS011;68384;55.750;48.746;2023-09-19T12:25:14;4.90;;;1.25;;
78985;SDS011;68384;55.750;48.746;2023-09-19T12:27:46;2.55;;;1.30;;
78985;SDS011;68384;55.750;48.746;2023-09-19T12:30:15;3.45;;;1.40;;
78985;SDS011;68384;55.750;48.746;2023-09-19T12:32:48;5.35;;;1.40;;
78985;SDS011;68384;55.750;48.746;2023-09-19T12:38:26;2.40;;;1.33;;
78985;SDS011;68384;55.750;48.746;2023-09-19T12:43:31;4.63;;;1.35;;
78985;SDS011;68384;55.750;48.746;2023-09-19T12:46:03;5.20;;;1.40;;
78985;SDS011;68384;55.750;48.746;2023-09-19T12:48:32;4.15;;;1.40;;
78985;SDS011;68384;55.750;48.746;2023-09-19T12:51:02;3.33;;;1.70;;
78985;SDS011;68384;55.750;48.746;2023-09-19T12:53:43;2.60;;;1.30;;
78985;SDS011;68384;55.750;48.746;2023-09-19T12:56:16;3.90;;;1.55;;
78985;SDS011;68384;55.750;48.746;2023-09-19T12:58:55;4.10;;;1.58;;
78985;SDS011;68384;55.750;48.746;2023-09-19T13:01:25;2.15;;;1.15;;
78985;SDS011;68384;55.750;48.746;2023-09-19T13:06:59;3.92;;;1.52;;
78985;SDS011;68384;55.750;48.746;2023-09-19T13:09:28;3.45;;;1.55;;
78985;SDS011;68384;55.750;48.746;2023-09-19T13:12:03;2.55;;;1.25;;
78985;SDS011;68384;55.750;48.746;2023-09-19T13:14:31;2.20;;;1.30;;
78985;SDS011;68384;55.750;48.746;2023-09-19T13:17:01;2.97;;;1.40;;
78985;SDS011;68384;55.750;48.746;2023-09-19T13:19:47;2.97;;;1.25;;
78985;SDS011;68384;55.750;48.746;2023-09-19T13:25:07;2.10;;;1.20;;
78985;SDS011;68384;55.750;48.746;2023-09-19T13:27:41;2.25;;;1.23;;
78985;SDS011;68384;55.750;48.746;2023-09-19T13:30:12;2.30;;;1.50;;
78985;SDS011;68384;55.750;48.746;2023-09-19T13:32:40;5.63;;;1.42;;
78985;SDS011;68384;55.750;48.746;2023-09-19T13:35:11;3.88;;;1.42;;
78985;SDS011;68384;55.750;48.746;2023-09-19T13:37:40;2.85;;;1.40;;
78985;SDS011;68384;55.750;48.746;2023-09-19T13:40:13;7.95;;;1.52;;
78985;SDS011;68384;55.750;48.746;2023-09-19T13:42:43;2.78;;;1.30;;
78985;SDS011;68384;55.750;48.746;2023-09-19T13:45:10;6.80;;;1.50;;
78985;SDS011;68384;55.750;48.746;2023-09-19T13:47:40;3.85;;;1.25;;
78985;SDS011;68384;55.750;48.746;2023-09-19T13:50:13;2.45;;;1.10;;
78985;SDS011;68384;55.750;48.746;2023-09-19T13:52:45;1.98;;;1.17;;
78985;SDS011;68384;55.750;48.746;2023-09-19T13:55:19;2.08;;;1.20;;
78985;SDS011;68384;55.750;48.746;2023-09-19T13:57:50;2.67;;;1.20;;
78985;SDS011;68384;55.750;48.746;2023-09-19T14:00:22;2.30;;;1.67;;
78985;SDS011;68384;55.750;48.746;2023-09-19T14:02:50;2.40;;;1.30;;
78985;SDS011;68384;55.750;48.746;2023-09-19T14:05:19;2.75;;;1.35;;
78985;SDS011;68384;55.750;48.746;2023-09-19T14:07:47;2.25;;;1.38;;
78985;SDS011;68384;55.750;48.746;2023-09-19T14:10:15;2.30;;;1.20;;
78985;SDS011;68384;55.750;48.746;2023-09-19T14:12:44;2.55;;;1.45;;
78985;SDS011;68384;55.750;48.746;2023-09-19T14:15:13;4.88;;;1.48;;
78985;SDS011;68384;55.750;48.746;2023-09-19T14:17:40;3.38;;;1.10;;
78985;SDS011;68384;55.750;48.746;2023-09-19T14:20:09;5.18;;;1.60;;
78985;SDS011;68384;55.750;48.746;2023-09-19T14:22:37;2.97;;;1.50;;
78985;SDS011;68384;55.750;48.746;2023-09-19T14:25:05;3.55;;;1.70;;
78985;SDS011;68384;55.750;48.746;2023-09-19T14:27:33;3.00;;;1.63;;
78985;SDS011;68384;55.750;48.746;2023-09-19T14:30:01;3.00;;;1.80;;
78985;SDS011;68384;55.750;48.746;2023-09-19T14:32:29;2.88;;;1.30;;
78985;SDS011;68384;55.750;48.746;2023-09-19T14:34:56;5.13;;;1.40;;
78985;SDS011;68384;55.750;48.746;2023-09-19T14:37:24;3.47;;;1.52;;
78985;SDS011;68384;55.750;48.746;2023-09-19T14:39:51;2.60;;;1.65;;
78985;SDS011;68384;55.750;48.746;2023-09-19T14:42:19;2.45;;;1.40;;
78985;SDS011;68384;55.750;48.746;2023-09-19T14:44:47;2.22;;;1.30;;
78985;SDS011;68384;55.750;48.746;2023-09-19T14:47:16;3.05;;;1.10;;
78985;SDS011;68384;55.750;48.746;2023-09-19T14:49:44;2.85;;;1.27;;
78985;SDS011;68384;55.750;48.746;2023-09-19T14:52:12;1.92;;;1.27;;
78985;SDS011;68384;55.750;48.746;2023-09-19T14:54:43;4.45;;;1.40;;
78985;SDS011;68384;55.750;48.746;2023-09-19T14:57:15;4.97;;;1.48;;
78985;SDS011;68384;55.750;48.746;2023-09-19T15:05:00;3.40;;;1.50;;
78985;SDS011;68384;55.750;48.746;2023-09-19T15:07:52;3.85;;;1.60;;
78985;SDS011;68384;55.750;48.746;2023-09-19T15:10:53;6.90;;;1.60;;
78985;SDS011;68384;55.750;48.746;2023-09-19T15:13:22;2.30;;;1.50;;
78985;SDS011;68384;55.750;48.746;2023-09-19T15:15:57;3.22;;;1.73;;
78985;SDS011;68384;55.750;48.746;2023-09-19T15:19:03;2.70;;;1.60;;
78985;SDS011;68384;55.750;48.746;2023-09-19T15:21:34;4.38;;;1.77;;
78985;SDS011;68384;55.750;48.746;2023-09-19T15:24:09;7.95;;;2.00;;
78985;SDS011;68384;55.750;48.746;2023-09-19T15:26:37;3.63;;;2.20;;
78985;SDS011;68384;55.750;48.746;2023-09-19T15:29:08;3.05;;;1.83;;
78985;SDS011;68384;55.750;48.746;2023-09-19T15:31:39;4.85;;;2.38;;
78985;SDS011;68384;55.750;48.746;2023-09-19T15:34:09;4.65;;;2.00;;
78985;SDS011;68384;55.750;48.746;2023-09-19T15:36:37;3.70;;;2.00;;
78985;SDS011;68384;55.750;48.746;2023-09-19T15:39:06;6.20;;;2.30;;
78985;SDS011;68384;55.750;48.746;2023-09-19T15:41:45;5.05;;;1.95;;
78985;SDS011;68384;55.750;48.746;2023-09-19T15:44:19;6.13;;;2.03;;
78985;SDS011;68384;55.750;48.746;2023-09-19T15:49:17;4.38;;;1.88;;
78985;SDS011;68384;55.750;48.746;2023-09-19T15:51:45;7.70;;;1.90;;
78985;SDS011;68384;55.750;48.746;2023-09-19T15:54:18;4.03;;;1.85;;
78985;SDS011;68384;55.750;48.746;2023-09-19T15:56:45;3.97;;;2.25;;
78985;SDS011;68384;55.750;48.746;2023-09-19T15:59:18;3.55;;;1.63;;
78985;SDS011;68384;55.750;48.746;2023-09-19T16:01:46;4.85;;;1.88;;
78985;SDS011;68384;55.750;48.746;2023-09-19T16:04:20;3.05;;;1.80;;
78985;SDS011;68384;55.750;48.746;2023-09-19T16:07:11;3.70;;;1.52;;
78985;SDS011;68384;55.750;48.746;2023-09-19T16:09:38;5.38;;;1.85;;
78985;SDS011;68384;55.750;48.746;2023-09-19T16:12:06;3.25;;;1.90;;
78985;SDS011;68384;55.750;48.746;2023-09-19T16:14:35;3.85;;;1.60;;
78985;SDS011;68384;55.750;48.746;2023-09-19T16:17:02;3.35;;;1.90;;
78985;SDS011;68384;55.750;48.746;2023-09-19T16:19:31;3.05;;;1.60;;
78985;SDS011;68384;55.750;48.746;2023-09-19T16:21:59;3.33;;;1.70;;
78985;SDS011;68384;55.750;48.746;2023-09-19T16:24:27;3.72;;;1.92;;
78985;SDS011;68384;55.750;48.746;2023-09-19T16:26:54;5.30;;;2.00;;
78985;SDS011;68384;55.750;48.746;2023-09-19T16:29:22;2.95;;;1.73;;
78985;SDS011;68384;55.750;48.746;2023-09-19T16:31:52;5.85;;;1.90;;
78985;SDS011;68384;55.750;48.746;2023-09-19T16:34:20;3.13;;;2.00;;
78985;SDS011;68384;55.750;48.746;2023-09-19T16:36:52;3.35;;;1.90;;
78985;SDS011;68384;55.750;48.746;2023-09-19T16:39:24;3.15;;;1.73;;
78985;SDS011;68384;55.750;48.746;2023-09-19T16:42:10;5.28;;;1.95;;
78985;SDS011;68384;55.750;48.746;2023-09-19T16:46:37;4.78;;;1.98;;
78985;SDS011;68384;55.750;48.746;2023-09-19T16:49:05;3.00;;;1.50;;
78985;SDS011;68384;55.750;48.746;2023-09-19T16:51:34;10.10;;;1.92;;
78985;SDS011;68384;55.750;48.746;2023-09-19T16:54:03;2.40;;;1.40;;
78985;SDS011;68384;55.750;48.746;2023-09-19T16:56:30;3.70;;;1.67;;